createdAt,value
2017-09-08T00:00:26.771Z,0
2017-09-08T00:01:28.384Z,0
2017-09-08T00:02:30.019Z,0
2017-09-08T00:03:31.702Z,0
2017-09-08T00:04:33.379Z,0
2017-09-08T00:05:35.003Z,0
2017-09-08T00:06:36.581Z,0
2017-09-08T00:07:38.163Z,0
2017-09-08T00:08:39.606Z,0
2017-09-08T00:09:41.165Z,0
2017-09-08T00:10:42.695Z,0
2017-09-08T00:11:44.216Z,0
2017-09-08T00:12:45.775Z,0
2017-09-08T00:13:47.341Z,0
2017-09-08T00:14:48.901Z,0
2017-09-08T00:15:50.619Z,0
2017-09-08T00:16:52.280Z,0
2017-09-08T00:17:53.843Z,0
2017-09-08T00:18:55.444Z,0
2017-09-08T00:19:57.096Z,0
2017-09-08T00:20:58.633Z,0
2017-09-08T00:22:00.252Z,0
2017-09-08T00:23:01.833Z,0
2017-09-08T00:24:03.600Z,0
2017-09-08T00:25:05.230Z,0
2017-09-08T00:26:06.835Z,0
2017-09-08T00:27:08.522Z,0
2017-09-08T00:28:10.096Z,0
2017-09-08T00:29:11.667Z,0
2017-09-08T00:30:13.176Z,0
2017-09-08T00:31:14.813Z,0
2017-09-08T00:32:16.360Z,0
2017-09-08T00:33:17.929Z,0
2017-09-08T00:34:19.532Z,0
2017-09-08T00:35:21.111Z,0
2017-09-08T00:36:22.749Z,0
2017-09-08T00:37:24.264Z,0
2017-09-08T00:38:25.886Z,0
2017-09-08T00:39:27.498Z,0
2017-09-08T00:40:29.052Z,0
2017-09-08T00:41:30.575Z,0
2017-09-08T00:42:32.124Z,0
2017-09-08T00:43:33.718Z,0
2017-09-08T00:44:35.243Z,0
2017-09-08T00:45:36.757Z,0
2017-09-08T00:46:38.399Z,0
2017-09-08T00:47:39.993Z,0
2017-09-08T00:48:41.602Z,0
2017-09-08T00:49:43.190Z,0
2017-09-08T00:50:44.732Z,0
2017-09-08T00:51:46.308Z,0
2017-09-08T00:52:47.911Z,0
2017-09-08T00:53:49.442Z,0
2017-09-08T00:54:51.028Z,0
2017-09-08T00:55:52.616Z,0
2017-09-08T00:56:54.142Z,0
2017-09-08T00:57:55.667Z,0
2017-09-08T00:58:57.190Z,0
2017-09-08T00:59:58.944Z,0
2017-09-08T01:01:00.551Z,0
2017-09-08T01:02:02.117Z,0
2017-09-08T01:03:03.746Z,0
2017-09-08T01:04:05.269Z,0
2017-09-08T01:05:06.896Z,0
2017-09-08T01:06:08.390Z,0
2017-09-08T01:07:09.968Z,0
2017-09-08T01:08:11.621Z,0
2017-09-08T01:09:13.163Z,0
2017-09-08T01:10:14.714Z,0
2017-09-08T01:11:16.201Z,0
2017-09-08T01:12:17.702Z,0
2017-09-08T01:13:19.347Z,0
2017-09-08T01:14:20.879Z,0
2017-09-08T01:15:22.425Z,0
2017-09-08T01:16:24.009Z,0
2017-09-08T01:17:25.613Z,0
2017-09-08T01:18:27.202Z,0
2017-09-08T01:19:28.754Z,0
2017-09-08T01:20:30.326Z,0
2017-09-08T01:21:31.833Z,0
2017-09-08T01:22:33.395Z,0
2017-09-08T01:23:34.987Z,0
2017-09-08T01:24:36.593Z,0
2017-09-08T01:25:38.186Z,0
2017-09-08T01:26:39.772Z,0
2017-09-08T01:27:41.401Z,0
2017-09-08T01:28:42.954Z,0
2017-09-08T01:29:44.588Z,0
2017-09-08T01:30:46.157Z,0
2017-09-08T01:31:47.682Z,0
2017-09-08T01:32:49.217Z,0
2017-09-08T01:33:50.830Z,0
2017-09-08T01:34:52.300Z,0
2017-09-08T01:35:53.867Z,0
2017-09-08T01:36:55.478Z,0
2017-09-08T01:37:57.021Z,0
2017-09-08T01:38:58.662Z,0
2017-09-08T01:40:00.248Z,0
2017-09-08T01:41:01.745Z,0
2017-09-08T01:42:03.364Z,0
2017-09-08T01:43:04.910Z,0
2017-09-08T01:44:06.547Z,0
2017-09-08T01:45:08.026Z,0
2017-09-08T01:46:09.635Z,0
2017-09-08T01:47:11.184Z,0
2017-09-08T01:48:12.765Z,0
2017-09-08T01:49:14.319Z,0
2017-09-08T01:50:16.758Z,0
2017-09-08T01:51:18.382Z,0
2017-09-08T01:52:19.988Z,0
2017-09-08T01:53:21.540Z,0
2017-09-08T01:54:23.113Z,0
2017-09-08T01:55:24.638Z,0
2017-09-08T01:56:26.247Z,0
2017-09-08T01:57:27.852Z,0
2017-09-08T01:58:29.352Z,0
2017-09-08T01:59:30.938Z,0
2017-09-08T02:00:32.455Z,0
2017-09-08T02:01:34.008Z,0
2017-09-08T02:02:35.605Z,0
2017-09-08T02:03:37.136Z,0
2017-09-08T02:04:38.673Z,0
2017-09-08T02:05:40.229Z,0
2017-09-08T02:06:41.787Z,0
2017-09-08T02:07:43.341Z,0
2017-09-08T02:08:44.902Z,0
2017-09-08T02:09:46.543Z,0
2017-09-08T02:10:48.112Z,0
2017-09-08T02:11:49.720Z,0
2017-09-08T02:12:51.275Z,0
2017-09-08T02:13:52.887Z,0
2017-09-08T02:14:54.467Z,0
2017-09-08T02:15:55.953Z,0
2017-09-08T02:16:57.476Z,0
2017-09-08T02:17:59.076Z,0
2017-09-08T02:19:00.658Z,0
2017-09-08T02:20:02.188Z,0
2017-09-08T02:21:03.723Z,0
2017-09-08T02:22:05.294Z,0
2017-09-08T02:23:06.899Z,0
2017-09-08T02:24:08.388Z,0
2017-09-08T02:25:09.932Z,0
2017-09-08T02:26:11.673Z,0
2017-09-08T02:27:13.206Z,0
2017-09-08T02:28:14.748Z,0
2017-09-08T02:29:16.318Z,0
2017-09-08T02:30:18.005Z,0
2017-09-08T02:31:19.576Z,0
2017-09-08T02:32:21.173Z,0
2017-09-08T02:33:22.785Z,0
2017-09-08T02:34:24.353Z,0
2017-09-08T02:35:25.964Z,0
2017-09-08T02:36:27.548Z,0
2017-09-08T02:37:29.139Z,0
2017-09-08T02:38:30.720Z,0
2017-09-08T02:39:32.327Z,0
2017-09-08T02:40:33.951Z,0
2017-09-08T02:41:35.544Z,0
2017-09-08T02:42:37.073Z,0
2017-09-08T02:43:38.666Z,0
2017-09-08T02:44:40.257Z,0
2017-09-08T02:45:41.776Z,0
2017-09-08T02:46:43.373Z,0
2017-09-08T02:47:44.915Z,0
2017-09-08T02:48:46.481Z,0
2017-09-08T02:49:48.055Z,0
2017-09-08T02:50:49.607Z,0
2017-09-08T02:51:51.200Z,0
2017-09-08T02:52:52.757Z,0
2017-09-08T02:53:54.328Z,0
2017-09-08T02:54:55.883Z,0
2017-09-08T02:55:57.501Z,0
2017-09-08T02:56:59.075Z,0
2017-09-08T02:58:00.597Z,0
2017-09-08T02:59:02.134Z,0
2017-09-08T03:00:03.649Z,0
2017-09-08T03:01:05.273Z,0
2017-09-08T03:02:06.879Z,0
2017-09-08T03:03:08.453Z,0
2017-09-08T03:04:09.982Z,0
2017-09-08T03:05:11.506Z,0
2017-09-08T03:06:13.125Z,0
2017-09-08T03:07:14.668Z,0
2017-09-08T03:08:16.233Z,0
2017-09-08T03:09:17.846Z,0
2017-09-08T03:10:19.419Z,0
2017-09-08T03:11:21.019Z,0
2017-09-08T03:12:22.557Z,0
2017-09-08T03:13:24.187Z,0
2017-09-08T03:14:25.823Z,0
2017-09-08T03:15:27.416Z,0
2017-09-08T03:16:28.947Z,0
2017-09-08T03:17:30.506Z,0
2017-09-08T03:18:32.090Z,0
2017-09-08T03:19:33.681Z,0
2017-09-08T03:20:35.202Z,0
2017-09-08T03:21:36.750Z,0
2017-09-08T03:22:38.285Z,0
2017-09-08T03:23:39.830Z,0
2017-09-08T03:24:41.379Z,0
2017-09-08T03:25:42.886Z,0
2017-09-08T03:26:44.467Z,0
2017-09-08T03:27:45.951Z,0
2017-09-08T03:28:47.560Z,0
2017-09-08T03:29:49.155Z,0
2017-09-08T03:30:50.738Z,0
2017-09-08T03:31:52.320Z,0
2017-09-08T03:32:53.947Z,0
2017-09-08T03:33:55.628Z,0
2017-09-08T03:34:57.162Z,0
2017-09-08T03:35:58.828Z,0
2017-09-08T03:37:00.464Z,0
2017-09-08T03:38:02.049Z,0
2017-09-08T03:39:03.615Z,0
2017-09-08T03:40:05.135Z,0
2017-09-08T03:41:06.666Z,0
2017-09-08T03:42:08.251Z,0
2017-09-08T03:43:09.741Z,0
2017-09-08T03:44:11.316Z,0
2017-09-08T03:45:12.928Z,0
2017-09-08T03:46:14.563Z,0
2017-09-08T03:47:16.134Z,0
2017-09-08T03:48:17.731Z,0
2017-09-08T03:49:19.343Z,0
2017-09-08T03:50:20.925Z,0
2017-09-08T03:51:22.501Z,0
2017-09-08T03:52:24.062Z,0
2017-09-08T03:53:25.643Z,0
2017-09-08T03:54:27.161Z,0
2017-09-08T03:55:28.776Z,0
2017-09-08T03:56:30.431Z,0
2017-09-08T03:57:32.010Z,0
2017-09-08T03:58:33.657Z,0
2017-09-08T03:59:35.169Z,0
2017-09-08T04:00:36.764Z,0
2017-09-08T04:01:38.285Z,0
2017-09-08T04:02:39.866Z,0
2017-09-08T04:03:41.390Z,0
2017-09-08T04:04:42.989Z,0
2017-09-08T04:05:44.528Z,0
2017-09-08T04:06:46.102Z,0
2017-09-08T04:07:47.676Z,0
2017-09-08T04:08:49.128Z,0
2017-09-08T04:09:50.754Z,0
2017-09-08T04:10:52.276Z,0
2017-09-08T04:11:53.861Z,0
2017-09-08T04:12:55.431Z,0
2017-09-08T04:13:57.074Z,0
2017-09-08T04:14:58.577Z,0
2017-09-08T04:16:00.234Z,0
2017-09-08T04:17:01.734Z,0
2017-09-08T04:18:03.377Z,0
2017-09-08T04:19:04.887Z,0
2017-09-08T04:20:06.459Z,0
2017-09-08T04:21:08.025Z,0
2017-09-08T04:22:09.648Z,0
2017-09-08T04:23:11.259Z,0
2017-09-08T04:24:12.819Z,0
2017-09-08T04:25:14.397Z,0
2017-09-08T04:26:16.042Z,0
2017-09-08T04:27:17.635Z,0
2017-09-08T04:28:19.247Z,0
2017-09-08T04:29:20.878Z,0
2017-09-08T04:30:22.529Z,0
2017-09-08T04:31:24.103Z,0
2017-09-08T04:32:25.686Z,0
2017-09-08T04:33:27.209Z,0
2017-09-08T04:34:28.823Z,0
2017-09-08T04:35:30.474Z,0
2017-09-08T04:36:32.009Z,0
2017-09-08T04:37:33.604Z,0
2017-09-08T04:38:35.161Z,0
2017-09-08T04:39:36.809Z,0
2017-09-08T04:40:38.519Z,0
2017-09-08T04:41:40.087Z,0
2017-09-08T04:42:41.965Z,0
2017-09-08T04:43:43.568Z,0
2017-09-08T04:44:45.287Z,5
2017-09-08T04:45:46.904Z,5
2017-09-08T04:46:48.545Z,5
2017-09-08T04:47:50.197Z,5
2017-09-08T04:48:51.760Z,5
2017-09-08T04:49:53.358Z,5
2017-09-08T04:50:54.965Z,5
2017-09-08T04:51:56.555Z,5
2017-09-08T04:52:58.166Z,5
2017-09-08T04:53:59.692Z,5
2017-09-08T04:55:01.327Z,11
2017-09-08T04:56:02.908Z,11
2017-09-08T04:57:04.572Z,11
2017-09-08T04:58:06.088Z,11
2017-09-08T04:59:07.735Z,11
2017-09-08T05:00:09.221Z,11
2017-09-08T05:01:10.836Z,11
2017-09-08T05:02:12.427Z,11
2017-09-08T05:03:14.007Z,11
2017-09-08T05:04:15.552Z,11
2017-09-08T05:05:17.169Z,11
2017-09-08T05:06:18.739Z,11
2017-09-08T05:07:20.328Z,11
2017-09-08T05:08:21.910Z,11
2017-09-08T05:09:23.624Z,11
2017-09-08T05:10:25.180Z,11
2017-09-08T05:11:26.749Z,11
2017-09-08T05:12:28.393Z,16
2017-09-08T05:13:29.990Z,16
2017-09-08T05:14:31.646Z,16
2017-09-08T05:15:33.222Z,16
2017-09-08T05:16:34.859Z,16
2017-09-08T05:17:36.454Z,16
2017-09-08T05:18:38.004Z,16
2017-09-08T05:19:39.557Z,16
2017-09-08T05:20:41.293Z,16
2017-09-08T05:21:42.831Z,16
2017-09-08T05:22:44.441Z,16
2017-09-08T05:23:46.067Z,22
2017-09-08T05:24:47.654Z,22
2017-09-08T05:25:49.210Z,22
2017-09-08T05:26:50.875Z,22
2017-09-08T05:27:52.497Z,22
2017-09-08T05:28:54.276Z,22
2017-09-08T05:29:56.029Z,22
2017-09-08T05:30:57.603Z,22
2017-09-08T05:31:59.262Z,22
2017-09-08T05:33:00.897Z,22
2017-09-08T05:34:02.473Z,22
2017-09-08T05:35:04.063Z,28
2017-09-08T05:36:05.638Z,28
2017-09-08T05:37:07.329Z,28
2017-09-08T05:38:08.905Z,28
2017-09-08T05:39:10.482Z,28
2017-09-08T05:40:12.240Z,33
2017-09-08T05:41:13.857Z,33
2017-09-08T05:42:15.550Z,33
2017-09-08T05:43:17.259Z,39
2017-09-08T05:44:19.369Z,39
2017-09-08T05:45:21.199Z,39
2017-09-08T05:46:23.041Z,39
2017-09-08T05:47:24.836Z,39
2017-09-08T05:48:26.826Z,45
2017-09-08T05:49:29.011Z,45
2017-09-08T05:50:30.619Z,45
2017-09-08T05:51:32.880Z,45
2017-09-08T05:52:34.490Z,45
2017-09-08T05:53:36.174Z,50
2017-09-08T05:54:37.746Z,50
2017-09-08T05:55:39.269Z,50
2017-09-08T05:56:40.818Z,56
2017-09-08T05:57:42.375Z,56
2017-09-08T05:58:43.948Z,61
2017-09-08T05:59:45.489Z,61
2017-09-08T06:00:47.067Z,61
2017-09-08T06:01:48.700Z,61
2017-09-08T06:02:50.555Z,61
2017-09-08T06:03:52.646Z,61
2017-09-08T06:04:54.472Z,61
2017-09-08T06:05:56.101Z,67
2017-09-08T06:06:57.846Z,67
2017-09-08T06:07:59.819Z,73
2017-09-08T06:09:01.555Z,78
2017-09-08T06:10:03.630Z,84
2017-09-08T06:11:05.279Z,90
2017-09-08T06:12:08.595Z,90
2017-09-08T06:13:10.364Z,95
2017-09-08T06:14:12.454Z,101
2017-09-08T06:15:14.202Z,101
2017-09-08T06:16:15.886Z,101
2017-09-08T06:17:17.463Z,106
2017-09-08T06:18:19.109Z,101
2017-09-08T06:19:20.886Z,106
2017-09-08T06:20:22.678Z,106
2017-09-08T06:21:24.546Z,106
2017-09-08T06:22:26.479Z,112
2017-09-08T06:23:28.253Z,112
2017-09-08T06:24:29.886Z,118
2017-09-08T06:25:31.495Z,118
2017-09-08T06:26:33.166Z,118
2017-09-08T06:27:35.095Z,112
2017-09-08T06:28:36.880Z,112
2017-09-08T06:29:38.580Z,112
2017-09-08T06:30:40.285Z,112
2017-09-08T06:31:41.947Z,118
2017-09-08T06:32:43.739Z,118
2017-09-08T06:33:45.477Z,118
2017-09-08T06:34:47.178Z,123
2017-09-08T06:35:49.973Z,123
2017-09-08T06:36:51.953Z,118
2017-09-08T06:37:54.168Z,118
2017-09-08T06:38:55.853Z,118
2017-09-08T06:39:58.090Z,123
2017-09-08T06:41:00.158Z,123
2017-09-08T06:42:01.484Z,129
2017-09-08T06:43:03.136Z,129
2017-09-08T06:44:04.840Z,123
2017-09-08T06:45:06.531Z,123
2017-09-08T06:46:08.222Z,123
2017-09-08T06:47:09.832Z,123
2017-09-08T06:48:11.495Z,123
2017-09-08T06:49:13.396Z,123
2017-09-08T06:50:15.062Z,123
2017-09-08T06:51:16.682Z,123
2017-09-08T06:52:18.496Z,123
2017-09-08T06:53:20.667Z,129
2017-09-08T06:54:22.326Z,129
2017-09-08T06:55:23.933Z,123
2017-09-08T06:56:25.633Z,129
2017-09-08T06:57:27.313Z,129
2017-09-08T06:58:29.031Z,129
2017-09-08T06:59:30.614Z,135
2017-09-08T07:00:32.356Z,140
2017-09-08T07:01:33.947Z,146
2017-09-08T07:02:35.739Z,151
2017-09-08T07:03:37.399Z,157
2017-09-08T07:04:39.036Z,151
2017-09-08T07:05:40.720Z,157
2017-09-08T07:06:42.335Z,151
2017-09-08T07:07:43.882Z,151
2017-09-08T07:08:45.672Z,151
2017-09-08T07:09:47.254Z,151
2017-09-08T07:10:48.842Z,168
2017-09-08T07:11:50.524Z,168
2017-09-08T07:12:52.144Z,174
2017-09-08T07:13:53.786Z,174
2017-09-08T07:14:55.375Z,174
2017-09-08T07:15:56.970Z,180
2017-09-08T07:16:58.711Z,202
2017-09-08T07:18:00.318Z,208
2017-09-08T07:19:02.112Z,208
2017-09-08T07:20:03.967Z,225
2017-09-08T07:21:05.622Z,230
2017-09-08T07:22:07.414Z,241
2017-09-08T07:23:09.578Z,241
2017-09-08T07:24:15.107Z,241
2017-09-08T07:25:16.733Z,241
2017-09-08T07:26:18.664Z,241
2017-09-08T07:27:20.788Z,236
2017-09-08T07:28:23.046Z,230
2017-09-08T07:29:24.801Z,230
2017-09-08T07:30:26.525Z,219
2017-09-08T07:31:28.297Z,208
2017-09-08T07:32:30.097Z,191
2017-09-08T07:33:31.788Z,196
2017-09-08T07:34:33.521Z,191
2017-09-08T07:35:35.267Z,196
2017-09-08T07:36:36.952Z,180
2017-09-08T07:37:38.678Z,185
2017-09-08T07:38:40.326Z,208
2017-09-08T07:39:42.122Z,196
2017-09-08T07:40:43.835Z,202
2017-09-08T07:41:45.583Z,236
2017-09-08T07:42:47.203Z,236
2017-09-08T07:43:48.883Z,236
2017-09-08T07:44:50.696Z,236
2017-09-08T07:45:52.390Z,236
2017-09-08T07:46:54.117Z,241
2017-09-08T07:47:55.851Z,247
2017-09-08T07:48:57.641Z,253
2017-09-08T07:49:59.395Z,258
2017-09-08T07:51:01.071Z,275
2017-09-08T07:52:02.816Z,275
2017-09-08T07:53:04.570Z,281
2017-09-08T07:54:06.287Z,281
2017-09-08T07:55:07.956Z,286
2017-09-08T07:56:09.680Z,292
2017-09-08T07:57:11.743Z,292
2017-09-08T07:58:13.575Z,286
2017-09-08T07:59:15.355Z,281
2017-09-08T08:00:17.851Z,264
2017-09-08T08:01:19.603Z,258
2017-09-08T08:02:21.425Z,253
2017-09-08T08:03:23.169Z,264
2017-09-08T08:04:24.990Z,236
2017-09-08T08:05:26.785Z,219
2017-09-08T08:06:28.532Z,236
2017-09-08T08:07:30.290Z,213
2017-09-08T08:08:32.128Z,208
2017-09-08T08:09:33.888Z,208
2017-09-08T08:10:35.623Z,208
2017-09-08T08:11:37.334Z,208
2017-09-08T08:12:39.016Z,219
2017-09-08T08:13:41.095Z,219
2017-09-08T08:14:43.443Z,225
2017-09-08T08:15:47.493Z,230
2017-09-08T08:17:05.660Z,236
2017-09-08T08:18:07.612Z,236
2017-09-08T08:19:09.510Z,247
2017-09-08T08:20:11.253Z,225
2017-09-08T08:21:13.419Z,247
2017-09-08T08:22:15.221Z,247
2017-09-08T08:23:17.066Z,247
2017-09-08T08:24:18.968Z,247
2017-09-08T08:25:21.015Z,253
2017-09-08T08:26:22.795Z,247
2017-09-08T08:27:24.471Z,253
2017-09-08T08:28:26.419Z,253
2017-09-08T08:29:28.246Z,264
2017-09-08T08:30:30.005Z,292
2017-09-08T08:31:32.048Z,292
2017-09-08T08:32:34.187Z,303
2017-09-08T08:33:35.882Z,275
2017-09-08T08:34:37.970Z,292
2017-09-08T08:35:39.745Z,292
2017-09-08T08:36:41.654Z,320
2017-09-08T08:37:43.354Z,315
2017-09-08T08:38:44.996Z,286
2017-09-08T08:39:46.894Z,309
2017-09-08T08:40:48.825Z,253
2017-09-08T08:41:50.763Z,270
2017-09-08T08:42:52.904Z,303
2017-09-08T08:43:54.741Z,303
2017-09-08T08:44:58.659Z,309
2017-09-08T08:46:00.624Z,331
2017-09-08T08:47:02.398Z,315
2017-09-08T08:48:04.182Z,286
2017-09-08T08:49:06.312Z,348
2017-09-08T08:50:08.166Z,343
2017-09-08T08:51:10.274Z,343
2017-09-08T08:52:12.140Z,303
2017-09-08T08:53:13.961Z,382
2017-09-08T08:54:15.919Z,376
2017-09-08T08:55:18.053Z,393
2017-09-08T08:56:19.919Z,405
2017-09-08T08:57:22.614Z,376
2017-09-08T08:58:24.440Z,360
2017-09-08T08:59:26.212Z,292
2017-09-08T09:00:28.492Z,360
2017-09-08T09:01:30.554Z,331
2017-09-08T09:02:32.567Z,241
2017-09-08T09:03:34.286Z,196
2017-09-08T09:04:36.225Z,247
2017-09-08T09:05:38.207Z,275
2017-09-08T09:06:40.083Z,270
2017-09-08T09:07:42.026Z,236
2017-09-08T09:08:43.870Z,236
2017-09-08T09:09:46.307Z,264
2017-09-08T09:10:48.069Z,258
2017-09-08T09:11:49.727Z,270
2017-09-08T09:12:51.561Z,286
2017-09-08T09:13:53.435Z,270
2017-09-08T09:14:55.214Z,270
2017-09-08T09:15:57.155Z,264
2017-09-08T09:16:59.052Z,298
2017-09-08T09:18:00.750Z,309
2017-09-08T09:19:02.550Z,303
2017-09-08T09:20:04.234Z,286
2017-09-08T09:21:06.010Z,275
2017-09-08T09:22:07.987Z,275
2017-09-08T09:23:10.090Z,337
2017-09-08T09:24:12.017Z,382
2017-09-08T09:25:14.199Z,405
2017-09-08T09:26:16.175Z,511
2017-09-08T09:27:17.912Z,478
2017-09-08T09:28:19.713Z,376
2017-09-08T09:29:21.508Z,348
2017-09-08T09:30:23.433Z,326
2017-09-08T09:31:25.090Z,309
2017-09-08T09:32:26.913Z,298
2017-09-08T09:33:28.604Z,320
2017-09-08T09:34:30.253Z,309
2017-09-08T09:35:32.204Z,298
2017-09-08T09:36:34.121Z,264
2017-09-08T09:37:35.949Z,230
2017-09-08T09:38:37.677Z,219
2017-09-08T09:39:39.370Z,258
2017-09-08T09:40:41.014Z,292
2017-09-08T09:41:42.638Z,309
2017-09-08T09:42:44.241Z,309
2017-09-08T09:43:46.308Z,275
2017-09-08T09:44:48.084Z,230
2017-09-08T09:45:49.794Z,157
2017-09-08T09:46:51.595Z,163
2017-09-08T09:47:53.244Z,146
2017-09-08T09:48:57.984Z,118
2017-09-08T09:49:59.825Z,112
2017-09-08T09:51:01.663Z,95
2017-09-08T09:52:03.498Z,90
2017-09-08T09:53:05.237Z,90
2017-09-08T09:54:06.903Z,73
2017-09-08T09:55:08.562Z,67
2017-09-08T09:56:10.198Z,67
2017-09-08T09:57:11.940Z,78
2017-09-08T09:58:13.675Z,78
2017-09-08T09:59:15.445Z,90
2017-09-08T10:00:17.129Z,90
2017-09-08T10:01:18.809Z,90
2017-09-08T10:02:20.674Z,73
2017-09-08T10:03:22.365Z,73
2017-09-08T10:04:24.109Z,73
2017-09-08T10:05:25.790Z,84
2017-09-08T10:06:27.561Z,78
2017-09-08T10:07:29.317Z,84
2017-09-08T10:08:30.974Z,90
2017-09-08T10:09:32.699Z,84
2017-09-08T10:10:34.448Z,78
2017-09-08T10:11:36.196Z,78
2017-09-08T10:12:37.949Z,67
2017-09-08T10:13:39.691Z,67
2017-09-08T10:14:41.490Z,67
2017-09-08T10:15:43.315Z,67
2017-09-08T10:16:44.990Z,67
2017-09-08T10:17:46.724Z,84
2017-09-08T10:18:48.391Z,84
2017-09-08T10:19:50.204Z,73
2017-09-08T10:20:51.895Z,67
2017-09-08T10:21:53.880Z,61
2017-09-08T10:22:55.551Z,61
2017-09-08T10:23:57.291Z,67
2017-09-08T10:24:59.164Z,67
2017-09-08T10:26:00.955Z,67
2017-09-08T10:27:02.859Z,67
2017-09-08T10:28:04.675Z,73
2017-09-08T10:29:06.643Z,95
2017-09-08T10:30:08.386Z,118
2017-09-08T10:31:09.956Z,180
2017-09-08T10:32:11.728Z,180
2017-09-08T10:33:13.434Z,163
2017-09-08T10:34:15.167Z,151
2017-09-08T10:35:16.891Z,151
2017-09-08T10:36:18.668Z,146
2017-09-08T10:37:20.449Z,163
2017-09-08T10:38:22.256Z,157
2017-09-08T10:39:23.947Z,135
2017-09-08T10:40:25.623Z,151
2017-09-08T10:41:27.478Z,196
2017-09-08T10:42:32.224Z,208
2017-09-08T10:43:33.891Z,247
2017-09-08T10:44:35.630Z,270
2017-09-08T10:45:37.277Z,303
2017-09-08T10:46:38.973Z,320
2017-09-08T10:47:40.659Z,343
2017-09-08T10:48:42.390Z,410
2017-09-08T10:49:44.081Z,438
2017-09-08T10:50:45.765Z,466
2017-09-08T10:51:47.479Z,461
2017-09-08T10:52:49.334Z,450
2017-09-08T10:53:51.135Z,472
2017-09-08T10:54:52.800Z,483
2017-09-08T10:55:54.552Z,495
2017-09-08T10:56:56.259Z,523
2017-09-08T10:57:57.954Z,540
2017-09-08T10:58:59.678Z,624
2017-09-08T11:00:01.409Z,680
2017-09-08T11:01:03.154Z,731
2017-09-08T11:02:04.887Z,798
2017-09-08T11:03:06.698Z,759
2017-09-08T11:04:08.589Z,624
2017-09-08T11:05:10.238Z,545
2017-09-08T11:06:12.075Z,455
2017-09-08T11:07:13.735Z,450
2017-09-08T11:08:15.847Z,410
2017-09-08T11:09:18.075Z,438
2017-09-08T11:10:20.638Z,455
2017-09-08T11:11:22.495Z,466
2017-09-08T11:12:24.107Z,438
2017-09-08T11:13:25.694Z,489
2017-09-08T11:14:27.381Z,489
2017-09-08T11:15:28.906Z,489
2017-09-08T11:16:30.545Z,680
2017-09-08T11:17:32.270Z,483
2017-09-08T11:18:33.918Z,478
2017-09-08T11:19:35.689Z,455
2017-09-08T11:20:37.344Z,399
2017-09-08T11:21:39.079Z,326
2017-09-08T11:22:40.782Z,225
2017-09-08T11:23:42.432Z,163
2017-09-08T11:24:44.039Z,191
2017-09-08T11:25:45.696Z,275
2017-09-08T11:26:47.929Z,365
2017-09-08T11:27:49.554Z,393
2017-09-08T11:28:51.151Z,365
2017-09-08T11:29:52.841Z,382
2017-09-08T11:30:54.545Z,551
2017-09-08T11:31:56.300Z,579
2017-09-08T11:32:57.973Z,703
2017-09-08T11:33:59.650Z,680
2017-09-08T11:35:01.366Z,658
2017-09-08T11:36:09.693Z,652
2017-09-08T11:37:11.647Z,635
2017-09-08T11:38:15.067Z,624
2017-09-08T11:39:17.354Z,607
2017-09-08T11:40:18.859Z,506
2017-09-08T11:41:22.185Z,500
2017-09-08T11:42:25.179Z,551
2017-09-08T11:43:26.765Z,573
2017-09-08T11:44:28.672Z,551
2017-09-08T11:45:31.858Z,562
2017-09-08T11:46:39.348Z,568
2017-09-08T11:47:41.162Z,573
2017-09-08T11:48:52.496Z,573
2017-09-08T11:49:54.307Z,579
2017-09-08T11:50:57.301Z,596
2017-09-08T11:51:58.989Z,635
2017-09-08T11:53:07.168Z,635
2017-09-08T11:54:08.893Z,691
2017-09-08T11:55:12.718Z,742
2017-09-08T11:56:14.376Z,804
2017-09-08T11:57:17.434Z,810
2017-09-08T11:58:22.865Z,843
2017-09-08T11:59:23.579Z,832
2017-09-08T12:00:25.374Z,781
2017-09-08T12:01:27.239Z,793
2017-09-08T12:02:28.876Z,781
2017-09-08T12:03:30.644Z,765
2017-09-08T12:04:32.338Z,753
2017-09-08T12:05:34.088Z,573
2017-09-08T12:06:35.881Z,466
2017-09-08T12:07:37.711Z,360
2017-09-08T12:08:39.272Z,320
2017-09-08T12:09:41.043Z,326
2017-09-08T12:10:44.662Z,292
2017-09-08T12:11:46.514Z,286
2017-09-08T12:12:53.116Z,281
2017-09-08T12:13:55.297Z,292
2017-09-08T12:15:00.097Z,275
2017-09-08T12:16:01.964Z,281
2017-09-08T12:17:05.568Z,292
2017-09-08T12:18:09.851Z,303
2017-09-08T12:19:15.109Z,286
2017-09-08T12:20:19.027Z,292
2017-09-08T12:21:25.114Z,298
2017-09-08T12:22:27.598Z,315
2017-09-08T12:23:30.475Z,331
2017-09-08T12:24:33.669Z,320
2017-09-08T12:25:38.357Z,337
2017-09-08T12:26:42.126Z,348
2017-09-08T12:27:45.124Z,376
2017-09-08T12:28:49.041Z,354
2017-09-08T12:29:53.961Z,315
2017-09-08T12:31:10.899Z,303
2017-09-08T12:32:13.087Z,315
2017-09-08T12:33:17.233Z,320
2017-09-08T12:34:19.617Z,264
2017-09-08T12:35:22.426Z,230
2017-09-08T12:36:27.028Z,225
2017-09-08T12:37:29.329Z,202
2017-09-08T12:38:31.703Z,230
2017-09-08T12:39:38.555Z,241
2017-09-08T12:40:44.982Z,236
2017-09-08T12:41:49.814Z,208
2017-09-08T12:42:53.138Z,180
2017-09-08T12:43:56.213Z,185
2017-09-08T12:44:58.624Z,191
2017-09-08T12:46:03.402Z,163
2017-09-08T12:47:06.134Z,123
2017-09-08T12:48:10.071Z,118
2017-09-08T12:49:13.076Z,140
2017-09-08T12:50:14.782Z,174
2017-09-08T12:51:17.045Z,191
2017-09-08T12:52:18.854Z,208
2017-09-08T12:53:20.600Z,225
2017-09-08T12:54:22.945Z,225
2017-09-08T12:55:25.202Z,202
2017-09-08T12:56:27.234Z,191
2017-09-08T12:57:29.302Z,202
2017-09-08T12:58:31.631Z,253
2017-09-08T12:59:34.248Z,343
2017-09-08T13:00:36.053Z,303
2017-09-08T13:01:38.265Z,241
2017-09-08T13:02:40.429Z,185
2017-09-08T13:03:42.699Z,191
2017-09-08T13:04:44.733Z,219
2017-09-08T13:05:46.536Z,225
2017-09-08T13:06:49.893Z,202
2017-09-08T13:07:51.608Z,196
2017-09-08T13:08:53.890Z,185
2017-09-08T13:09:56.431Z,196
2017-09-08T13:10:59.332Z,247
2017-09-08T13:12:01.120Z,360
2017-09-08T13:13:03.125Z,326
2017-09-08T13:14:06.061Z,326
2017-09-08T13:15:08.262Z,371
2017-09-08T13:16:09.997Z,388
2017-09-08T13:17:12.164Z,343
2017-09-08T13:18:14.005Z,309
2017-09-08T13:19:17.144Z,292
2017-09-08T13:20:19.533Z,264
2017-09-08T13:21:21.319Z,253
2017-09-08T13:23:48.272Z,225
2017-09-08T13:25:34.337Z,219
2017-09-08T13:26:36.573Z,236
2017-09-08T13:27:38.326Z,258
2017-09-08T13:28:41.262Z,298
2017-09-08T13:29:45.013Z,331
2017-09-08T13:30:46.752Z,360
2017-09-08T13:31:49.456Z,343
2017-09-08T13:32:51.213Z,331
2017-09-08T13:33:54.521Z,315
2017-09-08T13:34:56.322Z,303
2017-09-08T13:35:58.739Z,286
2017-09-08T13:37:00.666Z,270
2017-09-08T13:38:02.286Z,241
2017-09-08T13:39:04.285Z,225
2017-09-08T13:40:06.202Z,202
2017-09-08T13:41:08.750Z,185
2017-09-08T13:42:11.017Z,180
2017-09-08T13:43:12.868Z,180
2017-09-08T13:44:14.696Z,191
2017-09-08T13:45:16.555Z,185
2017-09-08T13:46:18.350Z,174
2017-09-08T13:47:20.423Z,174
2017-09-08T13:48:22.107Z,174
2017-09-08T13:49:23.887Z,163
2017-09-08T13:50:25.850Z,163
2017-09-08T13:51:27.650Z,168
2017-09-08T13:52:29.316Z,180
2017-09-08T13:53:31.117Z,191
2017-09-08T13:54:32.919Z,202
2017-09-08T13:55:34.877Z,196
2017-09-08T13:56:36.493Z,191
2017-09-08T13:57:38.318Z,185
2017-09-08T13:58:39.987Z,180
2017-09-08T13:59:41.655Z,180
2017-09-08T14:00:43.203Z,174
2017-09-08T14:01:45.107Z,168
2017-09-08T14:02:46.816Z,168
2017-09-08T14:03:48.649Z,168
2017-09-08T14:04:51.269Z,168
2017-09-08T14:05:53.196Z,174
2017-09-08T14:06:54.803Z,180
2017-09-08T14:07:56.587Z,174
2017-09-08T14:08:58.161Z,163
2017-09-08T14:09:59.840Z,163
2017-09-08T14:11:01.508Z,168
2017-09-08T14:12:03.154Z,180
2017-09-08T14:13:04.949Z,191
2017-09-08T14:14:06.524Z,196
2017-09-08T14:15:08.243Z,208
2017-09-08T14:16:10.073Z,219
2017-09-08T14:17:11.717Z,230
2017-09-08T14:18:13.335Z,247
2017-09-08T14:19:14.992Z,264
2017-09-08T14:20:16.750Z,281
2017-09-08T14:21:18.607Z,298
2017-09-08T14:22:20.278Z,326
2017-09-08T14:23:21.901Z,365
2017-09-08T14:24:23.651Z,337
2017-09-08T14:25:25.371Z,421
2017-09-08T14:26:26.948Z,320
2017-09-08T14:27:28.544Z,292
2017-09-08T14:28:30.156Z,270
2017-09-08T14:29:31.891Z,247
2017-09-08T14:30:33.474Z,225
2017-09-08T14:31:35.138Z,219
2017-09-08T14:32:36.835Z,208
2017-09-08T14:33:38.579Z,202
2017-09-08T14:34:40.234Z,191
2017-09-08T14:35:41.868Z,196
2017-09-08T14:36:43.588Z,213
2017-09-08T14:37:45.209Z,180
2017-09-08T14:38:46.898Z,202